Flight Track Log - Related Links

Times and Time Zones

All times are in EDT time to prevent confusion due to time zone crossing. See the AFR688 flight status page for this flight to view local times or setup timezone preferences in your user account.

Time Position Orientation Groundspeed Altitude Reporting Facility
EDT Latitude Longitude Course Direction KTS MPH feet Rate Location/Type
Fri 07:47:00 AM 49.1344 2.0468 297° West  Level FlightAware Approximate
Fri 07:48:00 AM 49.1841 1.8893 294° West  Level FlightAware Approximate
Fri 07:49:00 AM 49.2298 1.7290 294° West  Level FlightAware Approximate
Fri 07:50:00 AM 49.2759 1.5687 294° West  Level FlightAware Approximate
Fri 07:51:00 AM 49.3218 1.4081 294° West  Level FlightAware Approximate
Fri 07:52:00 AM 49.3673 1.2471 289° West  Level FlightAware Approximate
Fri 07:53:00 AM 49.4043 1.0810 289° West  Level FlightAware Approximate
Fri 07:54:00 AM 49.4432 0.9158 294° West  Level FlightAware Approximate
Fri 07:55:00 AM 49.4893 0.7548 294° West  Level FlightAware Approximate
Fri 07:56:00 AM 49.5349 0.5934 290° West  Level FlightAware Approximate
Fri 07:57:00 AM 49.5732 0.4274 290° West  Level FlightAware Approximate
Fri 07:58:00 AM 49.6160 0.2708 284° West  Level FlightAware Approximate
Fri 07:59:00 AM 49.6600 0.1079 293° West  Level FlightAware Approximate
Fri 07:59:48 AM 49.0218 2.5353 293° West 175 201 800  Level FlightAware ADS-B
Fri 07:59:51 AM 49.0216 2.5313 266° West 173 199 900 3,000 Climbing FlightAware ADS-B
Fri 07:59:58 AM 49.0212 2.5229 266° West 167 192 1,300 3,231 Climbing FlightAware ADS-B
Fri 08:00:04 AM 49.0208 2.5156 265° West 166 191 1,600 2,769 Climbing FlightAware ADS-B
Fri 08:00:11 AM 49.0204 2.5076 266° West 166 191 1,900 2,571 Climbing FlightAware ADS-B
Fri 08:00:18 AM 49.0198 2.4992 264° West 169 194 2,200 2,348 Climbing FlightAware ADS-B
Fri 08:00:34 AM 49.0186 2.4810 264° West 169 194 2,800 2,087 Climbing FlightAware ADS-B
Fri 08:00:41 AM 49.0178 2.4721 262° West 171 197 3,000 1,714 Climbing FlightAware ADS-B
Fri 08:00:48 AM 49.0172 2.4635 264° West 175 201 3,200 2,000 Climbing FlightAware ADS-B
Fri 08:00:56 AM 49.0166 2.4539 265° West 171 197 3,500 2,400 Climbing FlightAware ADS-B
Fri 08:01:08 AM 49.0158 2.4404 265° West 169 194 4,000 1,765 Climbing FlightAware ADS-B
Fri 08:01:13 AM 49.0155 2.4336 266° West 175 201 4,000 857 Level FlightAware ADS-B
Fri 08:01:22 AM 49.0149 2.4221 265° West 186 214 4,200 1,000 Climbing FlightAware ADS-B
Fri 08:01:37 AM 49.0139 2.4012 266° West 207 238 4,400 1,000 Climbing FlightAware ADS-B
Fri 08:01:46 AM 49.0132 2.3880 265° West 213 245 4,600 1,636 Climbing FlightAware ADS-B
Fri 08:01:59 AM 49.0124 2.3692 266° West 222 255 5,000 1,615 Climbing FlightAware ADS-B
Fri 08:02:12 AM 49.0114 2.3476 266° West 230 265 5,300 1,333 Climbing FlightAware ADS-B
Fri 08:02:17 AM 49.0114 2.3404 270° West 234 269 5,400 1,500 Climbing FlightAware ADS-B
Fri 08:02:20 AM 49.0117 2.3352 275° West 237 273 5,500 2,571 Climbing FlightAware ADS-B
Fri 08:02:24 AM 49.0125 2.3282 280° West 238 274 5,700 3,273 Climbing FlightAware ADS-B
Fri 08:02:31 AM 49.0147 2.3165 286° West 237 273 6,100 2,727 Climbing FlightAware ADS-B
Fri 08:02:35 AM 49.0162 2.3104 290° West 238 274 6,200 2,250 Climbing FlightAware ADS-B
Fri 08:02:39 AM 49.0178 2.3047 293° West 239 275 6,400 2,182 Climbing FlightAware ADS-B
Fri 08:02:46 AM 49.0212 2.2934 295° West 242 278 6,600 2,333 Climbing FlightAware ADS-B
Fri 08:02:57 AM 49.0260 2.2768 294° West 244 281 7,100 2,471 Climbing FlightAware ADS-B
Fri 08:03:03 AM 49.0284 2.2661 289° West 243 280 7,300 2,143 Climbing FlightAware ADS-B
Fri 08:03:11 AM 49.0303 2.2542 284° West 242 278 7,600 2,571 Climbing FlightAware ADS-B
Fri 08:03:17 AM 49.0317 2.2437 281° West 241 277 7,900 2,889 Climbing FlightAware ADS-B
Fri 08:03:38 AM 49.0351 2.2084 278° West 241 277 8,900 2,538 Climbing FlightAware ADS-B
Fri 08:03:43 AM 49.0357 2.1995 276° West 240 276 9,000 1,714 Climbing FlightAware ADS-B
Fri 08:03:59 AM 49.0370 2.1736 274° West 242 278 9,500 2,000 Climbing FlightAware ADS-B
Fri 08:04:07 AM 49.0376 2.1585 273° West 248 285 9,800 2,167 Climbing FlightAware ADS-B
Fri 08:04:35 AM 49.0393 2.1101 273° West 254 292 10,800 1,400 Climbing FlightAware ADS-B
Fri 08:05:07 AM 49.0431 2.0476 275° West 284 327 11,200 811 Climbing FlightAware ADS-B
Fri 08:05:49 AM 49.0483 1.9566 275° West 316 364 11,800 1,216 Climbing FlightAware ADS-B
Fri 08:06:21 AM 49.0515 1.8796 274° West 346 398 12,700  Climbing FlightAware ADS-B
Fri 08:06:40 AM 49.0569 1.8433 274° West 384 442 11,800  Descending FlightAware UK
Fri 08:06:58 AM 49.0530 1.7908 264° West 380 437 12,700 3,667 Climbing FlightAware UK
Fri 08:07:16 AM 49.0542 1.7476 272° West 370 426 14,000 7,043 Climbing FlightAware UK
Fri 08:07:21 AM 49.0540 1.7470 272° West 334 384 15,400 2,500 Climbing FlightAware ADS-B
Fri 08:07:52 AM 49.0553 1.6619 272° West 366 421 15,500 2,667 Climbing FlightAware UK
Fri 08:08:06 AM 49.0560 1.6390 272° West 332 382 17,400 2,000 Climbing FlightAware ADS-B
Fri 08:08:22 AM 49.0565 1.5915 272° West 370 426 16,500 1,800 Descending FlightAware UK
Fri 08:08:46 AM 49.0580 1.5470 272° West 342 394 18,600 1,857 Climbing FlightAware ADS-B
Fri 08:09:04 AM 49.0593 1.4927 272° West 374 430 17,800 1,867 Descending FlightAware UK
Fri 08:09:31 AM 49.0610 1.4370 272° West 350 403 20,000 1,714 Climbing FlightAware ADS-B
Fri 08:09:46 AM 49.0616 1.3894 272° West 384 442 19,000 -909 Descending FlightAware UK
Fri 08:10:04 AM 49.0629 1.3442 273° West 388 447 19,500 4,800 Climbing FlightAware UK
Fri 08:10:11 AM 49.0630 1.3340 273° West 361 415 21,000 1,000 Climbing FlightAware ADS-B
Fri 08:10:28 AM 49.0638 1.2822 273° West 402 463 19,900 1,350 Descending FlightAware UK
Fri 08:10:51 AM 49.0640 1.2390 273° West 370 426 21,900 1,714 Climbing FlightAware ADS-B
Fri 08:11:10 AM 49.0654 1.1720 273° West 408 470 21,100 2,000 Descending FlightAware UK
Fri 08:11:21 AM 49.0660 1.1500 273° West 375 432 22,900 857 Climbing FlightAware ADS-B
Fri 08:11:52 AM 49.0676 1.0609 273° West 424 488 21,700 750 Descending FlightAware UK
Fri 08:12:01 AM 49.0680 1.0430 273° West 394 453 23,400 2,000 Climbing FlightAware ADS-B
Fri 08:12:16 AM 49.0687 0.9931 273° West 428 493 22,500 -615 Descending FlightAware UK
Fri 08:12:40 AM 49.0697 0.9266 271° West 430 495 23,000 4,200 Climbing FlightAware UK
Fri 08:12:46 AM 49.0700 0.9170 271° West 398 458 24,600 2,200 Climbing FlightAware ADS-B
Fri 08:13:10 AM 49.0710 0.8424 271° West 424 488 24,100 2,100 Descending FlightAware UK
Fri 08:13:26 AM 49.0720 0.8020 271° West 395 455 26,000 1,375 Climbing FlightAware ADS-B
Fri 08:13:58 AM 49.0729 0.7094 271° West 432 497 25,200 1,350 Descending FlightAware UK
Fri 08:14:06 AM 49.0730 0.6920 271° West 400 460 26,900 1,250 Climbing FlightAware ADS-B
Fri 08:14:22 AM 49.0738 0.6423 271° West 434 499 25,700 -1,412 Descending FlightAware UK
Fri 08:14:40 AM 49.0744 0.5914 271° West 438 504 26,100 4,552 Climbing FlightAware UK
Fri 08:14:51 AM 49.0760 0.5660 271° West 405 466 27,900 1,200 Climbing FlightAware ADS-B
Fri 08:15:10 AM 49.0806 0.5052 271° West 446 513 26,700 -1,297 Descending FlightAware UK
Fri 08:15:28 AM 49.0871 0.4539 281° West 450 518 27,100 5,714 Climbing FlightAware UK
Fri 08:15:31 AM 49.0880 0.4510 281° West 414 476 28,700 1,000 Climbing FlightAware ADS-B
Fri 08:15:46 AM 49.0949 0.4031 281° West 446 513 27,400 1,067 Descending FlightAware UK
Fri 08:16:16 AM 49.1070 0.3200 281° West 422 486 29,500 1,125 Climbing FlightAware ADS-B
Fri 08:16:34 AM 49.1156 0.2647 281° West 458 527 28,300 -1,500 Descending FlightAware UK
Fri 08:16:52 AM 49.1233 0.2122 283° West 460 529 28,600 5,182 Climbing FlightAware UK
Fri 08:16:56 AM 49.1250 0.2020 283° West 426 490 30,200 1,250 Climbing FlightAware ADS-B
Fri 08:17:16 AM 49.1337 0.1418 283° West 466 536 29,100 -1,297 Descending FlightAware UK
Fri 08:17:33 AM 49.1406 0.0892 281° West 468 539 29,400 5,700 Climbing FlightAware UK
Fri 08:17:36 AM 49.1420 0.0850 281° West 429 494 31,000 600 Climbing FlightAware ADS-B
Fri 08:18:03 AM 49.1536 0.0004 281° West 476 548 29,700 533 Descending FlightAware UK
Fri 08:18:21 AM 49.1620 -0.0470 281° West 442 509 31,400 625 Climbing FlightAware ADS-B
Fri 08:18:51 AM 49.1752 -0.1467 281° West 490 564 30,200 686 Descending FlightAware UK
Fri 08:18:56 AM 49.1770 -0.1500 281° West 446 513 31,800 1,286 Climbing FlightAware ADS-B
Fri 08:19:33 AM 49.1941 -0.2754 281° West 486 559 31,100 1,200 Descending FlightAware UK
Fri 08:19:41 AM 49.1970 -0.2900 281° West 444 511 32,700 750 Climbing FlightAware ADS-B
Fri 08:19:57 AM 49.2044 -0.3492 281° West 488 562 31,400 -1,200 Descending FlightAware UK
Fri 08:20:21 AM 49.2144 -0.4228 282° West 490 564 31,900 4,138 Climbing FlightAware UK
Fri 08:20:26 AM 49.2150 -0.4210 282° West 446 513 33,400 1,250 Climbing FlightAware ADS-B
Fri 08:20:45 AM 49.2245 -0.4968 282° West 488 562 32,400 800 Descending FlightAware UK
Fri 08:21:11 AM 49.2350 -0.5640 282° West 441 507 34,000 125 Climbing FlightAware ADS-B
Fri 08:21:33 AM 49.2447 -0.6444 282° West 486 559 32,500  Descending FlightAware UK
Fri 08:21:51 AM 49.2520 -0.6880 282° West 445 512 34,000  Climbing FlightAware ADS-B
Fri 08:22:15 AM 49.2622 -0.7724 282° West 488 562 32,500  Descending FlightAware UK
Fri 08:22:31 AM 49.2670 -0.8040 282° West 443 510 34,000 1,475 Climbing FlightAware ADS-B
Fri 08:23:16 AM 49.2870 -0.9470 282° West 442 509 34,000 -1,452 Level FlightAware ADS-B
Fri 08:23:33 AM 49.2943 -1.0118 282° West 488 562 32,500  Descending FlightAware UK
Fri 08:23:56 AM 49.3030 -1.0720 282° West 441 507 34,000  Climbing FlightAware ADS-B
Fri 08:24:27 AM 49.3164 -1.1775 282° West 488 562 32,500  Descending FlightAware UK
Fri 08:24:36 AM 49.3190 -1.1910 282° West 439 505 34,000  Climbing FlightAware ADS-B
Fri 08:25:02 AM 49.3309 -1.2870 282° West 486 559 32,500  Descending FlightAware UK
Fri 08:25:21 AM 49.3370 -1.3300 282° West 439 505 34,000  Climbing FlightAware ADS-B
Fri 08:25:56 AM 49.3524 -1.4520 282° West 486 559 32,500  Descending FlightAware UK
Fri 08:26:01 AM 49.3530 -1.4540 282° West 441 507 34,000  Climbing FlightAware ADS-B
Fri 08:26:26 AM 49.3638 -1.5433 282° West 486 559 32,500  Descending FlightAware UK
Fri 08:26:46 AM 49.3700 -1.5890 282° West 442 509 34,000  Climbing FlightAware ADS-B
Fri 08:27:02 AM 49.3783 -1.6539 282° West 486 559 32,500  Descending FlightAware UK
Fri 08:27:26 AM 49.3860 -1.7150 282° West 441 507 34,000 1,406 Climbing FlightAware ADS-B
Fri 08:28:06 AM 49.4010 -1.8350 281° West 443 510 34,000 -1,500 Level FlightAware ADS-B
Fri 08:28:26 AM 49.4101 -1.9114 281° West 490 564 32,500 -2,368 Descending FlightAware UK
Fri 08:28:44 AM 49.4170 -1.9668 281° West 488 562 32,500 3,600 Level FlightAware UK
Fri 08:28:51 AM 49.4190 -1.9760 281° West 440 506 34,000  Climbing FlightAware ADS-B
Fri 08:29:08 AM 49.4259 -2.0397 281° West 488 562 32,500 -2,571 Descending FlightAware UK
Fri 08:29:26 AM 49.4327 -2.0946 281° West 488 562 32,500 3,913 Level FlightAware UK
Fri 08:29:31 AM 49.4330 -2.0940 281° West 441 507 34,000  Climbing FlightAware ADS-B
Fri 08:29:56 AM 49.4442 -2.1863 281° West 486 559 32,500  Descending FlightAware UK
Fri 08:30:11 AM 49.4490 -2.2200 281° West 441 507 34,000 1,500 Climbing FlightAware ADS-B
Fri 08:30:56 AM 49.4660 -2.3580 281° West 440 506 34,000 -1,429 Level FlightAware ADS-B
Fri 08:31:14 AM 49.4730 -2.4254 281° West 488 562 32,500 -2,500 Descending FlightAware UK
Fri 08:31:32 AM 49.4797 -2.4808 280° West 486 559 32,500 4,091 Level FlightAware UK
Fri 08:31:36 AM 49.4810 -2.4850 280° West 440 506 34,000  Climbing FlightAware ADS-B
Fri 08:31:56 AM 49.4884 -2.5546 280° West 486 559 32,500 -2,432 Descending FlightAware UK
Fri 08:32:13 AM 49.4949 -2.6092 280° West 484 557 32,500 3,600 Level FlightAware UK
Fri 08:32:21 AM 49.4970 -2.6210 280° West 440 506 34,000  Climbing FlightAware ADS-B
Fri 08:32:37 AM 49.5036 -2.6828 280° West 486 559 32,500  Descending FlightAware UK
Fri 08:33:01 AM 49.5110 -2.7430 280° West 440 506 34,000  Climbing FlightAware ADS-B
Fri 08:33:19 AM 49.5189 -2.8115 280° West 486 559 32,500  Descending FlightAware UK
Fri 08:33:46 AM 49.5280 -2.8840 280° West 441 507 34,000  Climbing FlightAware ADS-B
Fri 08:34:01 AM 49.5338 -2.9416 280° West 486 559 32,500  Descending FlightAware UK
Fri 08:34:26 AM 49.5420 -3.0060 280° West 442 509 34,000  Climbing FlightAware ADS-B
Fri 08:34:43 AM 49.5486 -3.0713 280° West 490 564 32,500  Descending FlightAware UK
Fri 08:35:11 AM 49.5570 -3.1430 280° West 440 506 34,000  Climbing FlightAware ADS-B
Fri 08:35:31 AM 49.5655 -3.2201 280° West 488 562 32,500  Descending FlightAware UK
Fri 08:35:51 AM 49.5710 -3.2660 280° West 439 505 34,000  Climbing FlightAware ADS-B
Fri 08:36:13 AM 49.5799 -3.3490 280° West 486 559 32,500  Descending FlightAware UK
Fri 08:36:31 AM 49.5850 -3.3940 280° West 440 506 34,000  Climbing FlightAware ADS-B
Fri 08:36:49 AM 49.5921 -3.4600 280° West 488 562 32,500 -2,500 Descending FlightAware UK
Fri 08:37:07 AM 49.5983 -3.5154 280° West 486 559 32,500 3,333 Level FlightAware UK
Fri 08:37:16 AM 49.6000 -3.5300 280° West 437 503 34,000  Climbing FlightAware ADS-B
Fri 08:37:31 AM 49.6063 -3.5887 280° West 486 559 32,500 -2,727 Descending FlightAware UK
Fri 08:37:49 AM 49.6123 -3.6440 280° West 486 559 32,500 3,600 Level FlightAware UK
Fri 08:37:56 AM 49.6140 -3.6530 280° West 437 503 34,000  Climbing FlightAware ADS-B
Fri 08:38:13 AM 49.6204 -3.7177 280° West 488 562 32,500  Descending FlightAware UK
Fri 08:38:41 AM 49.6290 -3.7900 280° West 436 502 34,000  Climbing FlightAware ADS-B
Fri 08:39:01 AM 49.6363 -3.8651 280° West 492 566 32,500  Descending FlightAware UK
Fri 08:39:21 AM 49.6420 -3.9140 280° West 432 497 34,000  Climbing FlightAware ADS-B
Fri 08:39:37 AM 49.6477 -3.9747 280° West 490 564 32,500 -2,647 Descending FlightAware UK
Fri 08:39:55 AM 49.6533 -4.0282 279° West 486 559 32,500 3,750 Level FlightAware UK
Fri 08:40:01 AM 49.6540 -4.0320 279° West 427 491 34,000  Climbing FlightAware ADS-B
Fri 08:40:19 AM 49.6609 -4.1000 279° West 486 559 32,500  Descending FlightAware UK
Fri 08:40:46 AM 49.6690 -4.1720 279° West 428 493 34,000  Climbing FlightAware ADS-B
Fri 08:41:01 AM 49.6739 -4.2261 279° West 484 557 32,500 -2,813 Descending FlightAware UK
Fri 08:41:18 AM 49.6796 -4.2796 279° West 486 559 32,500 3,600 Level FlightAware UK
Fri 08:41:26 AM 49.6810 -4.2910 279° West 428 493 34,000  Climbing FlightAware ADS-B
Fri 08:41:42 AM 49.6870 -4.3519 279° West 482 555 32,500 -2,647 Descending FlightAware UK
Fri 08:42:00 AM 49.6924 -4.4062 279° West 484 557 32,500 3,103 Level FlightAware UK
Fri 08:42:11 AM 49.6950 -4.4270 279° West 430 495 34,000  Climbing FlightAware ADS-B
Fri 08:42:36 AM 49.7034 -4.5151 279° West 484 557 32,500  Descending FlightAware UK
Fri 08:42:51 AM 49.7070 -4.5460 279° West 432 497 34,000  Climbing FlightAware ADS-B
Fri 08:43:06 AM 49.7145 -4.6061 279° West 482 555 32,500 -2,308 Descending FlightAware UK
Fri 08:43:30 AM 49.7286 -4.6767 287° West 482 555 32,500 3,600 Level FlightAware UK
Fri 08:43:31 AM 49.7270 -4.6680 287° West 429 494 34,000  Climbing FlightAware ADS-B
Fri 08:43:48 AM 49.7417 -4.7283 287° West 482 555 32,500 -2,571 Descending FlightAware UK
Fri 08:44:06 AM 49.7567 -4.7787 295° West 484 557 32,500 3,214 Level FlightAware UK
Fri 08:44:16 AM 49.7610 -4.7940 295° West 429 494 34,000  Climbing FlightAware ADS-B
Fri 08:44:36 AM 49.7801 -4.8639 295° West 482 555 32,500 -2,368 Descending FlightAware UK
Fri 08:44:54 AM 49.7942 -4.9152 293° West 482 555 32,500 4,500 Level FlightAware UK
Fri 08:44:56 AM 49.7930 -4.9100 293° West 430 495 34,000  Climbing FlightAware ADS-B
Fri 08:45:12 AM 49.8081 -4.9658 293° West 484 557 32,500 -2,647 Descending FlightAware UK
Fri 08:45:30 AM 49.8223 -5.0176 293° West 484 557 32,500 3,103 Level FlightAware UK
Fri 08:45:41 AM 49.8280 -5.0370 293° West 429 494 34,000  Climbing FlightAware ADS-B
Fri 08:46:00 AM 49.8457 -5.1024 293° West 484 557 32,500 -2,432 Descending FlightAware UK
Fri 08:46:18 AM 49.8598 -5.1536 293° West 482 555 32,500 4,286 Level FlightAware UK
Fri 08:46:21 AM 49.8590 -5.1490 293° West 430 495 34,000  Climbing FlightAware ADS-B
Fri 08:46:36 AM 49.8740 -5.2048 293° West 482 555 32,500 -2,727 Descending FlightAware UK
Fri 08:46:54 AM 49.8882 -5.2559 293° West 482 555 32,500 3,600 Level FlightAware UK
Fri 08:47:01 AM 49.8910 -5.2660 293° West 429 494 34,000  Climbing FlightAware ADS-B
Fri 08:47:24 AM 49.9117 -5.3414 293° West 484 557 32,500  Descending FlightAware UK
Fri 08:47:46 AM 49.9260 -5.3910 293° West 429 494 34,000  Climbing FlightAware ADS-B
Fri 08:48:18 AM 49.9538 -5.4955 293° West 482 555 32,500  Descending FlightAware UK
Fri 08:48:21 AM 49.9530 -5.4900 293° West 430 495 34,000  Climbing FlightAware ADS-B
Fri 08:48:36 AM 49.9677 -5.5471 293° West 484 557 32,500 -2,727 Descending FlightAware UK
Fri 08:48:54 AM 49.9817 -5.5987 293° West 482 555 32,500 3,000 Level FlightAware UK
Fri 08:49:06 AM 49.9900 -5.6270 293° West 433 498 34,000  Climbing FlightAware ADS-B
Fri 08:49:24 AM 50.0050 -5.6848 293° West 482 555 32,500 -2,500 Descending FlightAware UK
Fri 08:49:42 AM 50.0190 -5.7363 293° West 482 555 32,500 3,333 Level FlightAware UK
Fri 08:49:51 AM 50.0250 -5.7570 293° West 432 497 34,000  Climbing FlightAware ADS-B
Fri 08:50:06 AM 50.0374 -5.8050 293° West 480 552 32,500 -2,727 Descending FlightAware UK
Fri 08:50:24 AM 50.0512 -5.8566 293° West 482 555 32,500 3,600 Level FlightAware UK
Fri 08:50:31 AM 50.0550 -5.8710 293° West 433 498 34,000  Climbing FlightAware ADS-B
Fri 08:50:48 AM 50.0690 -5.9253 293° West 482 555 32,500 -2,571 Descending FlightAware UK
Fri 08:51:06 AM 50.0824 -5.9773 292° West 482 555 32,500 3,214 Level FlightAware UK
Fri 08:51:16 AM 50.0880 -5.9990 292° West 434 499 34,000  Climbing FlightAware ADS-B
Fri 08:51:36 AM 50.1049 -6.0641 292° West 482 555 32,500  Descending FlightAware UK
Fri 08:51:56 AM 50.1190 -6.1140 292° West 434 499 34,000  Climbing FlightAware ADS-B
Fri 08:52:12 AM 50.1319 -6.1684 292° West 480 552 32,500  Descending FlightAware UK
Fri 08:52:36 AM 50.1490 -6.2320 292° West 435 501 34,000  Climbing FlightAware ADS-B
Fri 08:52:54 AM 50.1635 -6.2902 292° West 482 555 32,500 -2,500 Descending FlightAware UK
Fri 08:53:12 AM 50.1770 -6.3426 292° West 482 555 32,500 3,333 Level FlightAware UK
Fri 08:53:21 AM 50.1820 -6.3600 292° West 435 501 34,000  Climbing FlightAware ADS-B
Fri 08:53:36 AM 50.1949 -6.4124 292° West 482 555 32,500 -2,727 Descending FlightAware UK
Fri 08:53:54 AM 50.2083 -6.4648 292° West 482 555 32,500 3,600 Level FlightAware UK
Fri 08:54:01 AM 50.2120 -6.4770 292° West 436 502 34,000  Climbing FlightAware ADS-B
Fri 08:54:24 AM 50.2306 -6.5523 292° West 480 552 32,500  Descending FlightAware UK
Fri 08:54:41 AM 50.2410 -6.5920 292° West 436 502 34,000  Climbing FlightAware ADS-B
Fri 08:55:00 AM 50.2572 -6.6574 292° West 482 555 32,500 -2,432 Descending FlightAware UK
Fri 08:55:18 AM 50.2707 -6.7099 292° West 480 552 32,500 3,462 Level FlightAware UK
Fri 08:55:26 AM 50.2750 -6.7270 292° West 436 502 34,000  Climbing FlightAware ADS-B
Fri 08:55:42 AM 50.2885 -6.7802 292° West 480 552 32,500 -2,647 Descending FlightAware UK
Fri 08:56:00 AM 50.3017 -6.8329 292° West 480 552 32,500 3,750 Level FlightAware UK
Fri 08:56:06 AM 50.3050 -6.8450 292° West 437 503 34,000  Climbing FlightAware ADS-B
Fri 08:56:24 AM 50.3193 -6.9033 292° West 480 552 32,500 -2,500 Descending FlightAware UK
Fri 08:56:42 AM 50.3325 -6.9563 291° West 480 552 32,500 3,333 Level FlightAware UK
Fri 08:56:51 AM 50.3390 -6.9790 291° West 439 505 34,000  Climbing FlightAware ADS-B
Fri 08:57:06 AM 50.3503 -7.0271 291° West 480 552 32,500 -2,727 Descending FlightAware UK
Fri 08:57:24 AM 50.3633 -7.0798 291° West 480 552 32,500 3,600 Level FlightAware UK
Fri 08:57:31 AM 50.3670 -7.0920 291° West 440 506 34,000  Climbing FlightAware ADS-B
Fri 08:57:48 AM 50.3811 -7.1509 291° West 480 552 32,500 -2,571 Descending FlightAware UK
Fri 08:58:06 AM 50.3945 -7.2044 291° West 480 552 32,500 3,913 Level FlightAware UK
Fri 08:58:11 AM 50.3970 -7.2110 291° West 441 507 34,000  Climbing FlightAware ADS-B
Fri 08:58:30 AM 50.4121 -7.2758 291° West 480 552 32,500 -2,432 Descending FlightAware UK
Fri 08:58:48 AM 50.4253 -7.3294 291° West 480 552 32,500 3,462 Level FlightAware UK
Fri 08:58:56 AM 50.4310 -7.3490 291° West 441 507 34,000  Climbing FlightAware ADS-B
Fri 08:59:12 AM 50.4427 -7.4011 291° West 480 552 32,500 -2,647 Descending FlightAware UK
Fri 08:59:30 AM 50.4559 -7.4548 291° West 480 552 32,500 3,750 Level FlightAware UK
Fri 08:59:36 AM 50.4590 -7.4650 291° West 442 509 34,000  Climbing FlightAware ADS-B
Fri 08:59:54 AM 50.4733 -7.5265 291° West 480 552 32,500 -2,500 Descending FlightAware UK
Fri 09:00:12 AM 50.4865 -7.5804 291° West 480 552 32,500 4,091 Level FlightAware UK
Fri 09:00:16 AM 50.4880 -7.5840 291° West 443 510 34,000  Climbing FlightAware ADS-B
Fri 09:00:36 AM 50.5039 -7.6523 291° West 480 552 32,500 -2,368 Descending FlightAware UK
Fri 09:00:54 AM 50.5172 -7.7062 291° West 480 552 32,500 3,600 Level FlightAware UK
Fri 09:01:01 AM 50.5220 -7.7230 291° West 444 511 34,000  Climbing FlightAware ADS-B
Fri 09:01:18 AM 50.5348 -7.7784 291° West 480 552 32,500 -2,571 Descending FlightAware UK
Fri 09:01:36 AM 50.5478 -7.8326 291° West 482 555 32,500 3,913 Level FlightAware UK
Fri 09:01:41 AM 50.5510 -7.8440 291° West 444 511 34,000  Climbing FlightAware ADS-B
Fri 09:02:00 AM 50.5652 -7.9051 291° West 482 555 32,500 -2,432 Descending FlightAware UK
Fri 09:02:18 AM 50.5781 -7.9595 291° West 482 555 32,500 3,462 Level FlightAware UK
Fri 09:02:26 AM 50.5830 -7.9780 291° West 444 511 34,000  Climbing FlightAware ADS-B
Fri 09:02:42 AM 50.5953 -8.0320 291° West 480 552 32,500 -2,647 Descending FlightAware UK
Fri 09:03:00 AM 50.6082 -8.0864 291° West 480 552 32,500 3,750 Level FlightAware UK
Fri 09:03:06 AM 50.6110 -8.0970 291° West 443 510 34,000  Climbing FlightAware ADS-B
Fri 09:03:24 AM 50.6254 -8.1588 291° West 480 552 32,500 -2,500 Descending FlightAware UK
Fri 09:03:42 AM 50.6382 -8.2126 291° West 478 550 32,500 4,091 Level FlightAware UK
Fri 09:03:46 AM 50.6410 -8.2200 291° West 444 511 34,000  Climbing FlightAware ADS-B
Fri 09:04:06 AM 50.6554 -8.2851 291° West 480 552 32,500 -2,368 Descending FlightAware UK
Fri 09:04:24 AM 50.6683 -8.3398 290° West 480 552 32,500 3,600 Level FlightAware UK
Fri 09:04:31 AM 50.6720 -8.3540 290° West 446 513 34,000  Climbing FlightAware ADS-B
Fri 09:04:48 AM 50.6854 -8.4128 290° West 480 552 32,500 -2,571 Descending FlightAware UK
Fri 09:05:06 AM 50.6982 -8.4678 290° West 480 552 32,500  Level FlightAware UK
Fri 09:05:24 AM 50.7110 -8.5227 290° West 480 552 32,500 4,500 Level FlightAware UK
Fri 09:05:26 AM 50.7090 -8.5110 290° West 447 514 34,000  Climbing FlightAware ADS-B
Fri 09:05:42 AM 50.7239 -8.5777 290° West 480 552 32,500 -2,647 Descending FlightAware UK
Fri 09:06:00 AM 50.7366 -8.6327 290° West 480 552 32,500 3,750 Level FlightAware UK
Fri 09:06:06 AM 50.7380 -8.6390 290° West 447 514 34,000  Climbing FlightAware ADS-B
Fri 09:06:24 AM 50.7537 -8.7061 290° West 480 552 32,500 -2,500 Descending FlightAware UK
Fri 09:06:42 AM 50.7664 -8.7611 290° West 480 552 32,500 3,333 Level FlightAware UK
Fri 09:06:51 AM 50.7710 -8.7790 290° West 446 513 34,000  Climbing FlightAware ADS-B
Fri 09:07:06 AM 50.7832 -8.8346 290° West 480 552 32,500  Descending FlightAware UK
Fri 09:07:26 AM 50.7940 -8.8820 290° West 447 514 34,000  Climbing FlightAware ADS-B
Fri 09:07:30 AM 50.7999 -8.9081 290° West 478 550 32,500 -5,625 Descending FlightAware UK
Fri 09:07:42 AM 50.8084 -8.9448 290° West 478 550 32,500  Level FlightAware UK
Fri 09:08:00 AM 50.8209 -9.0000 290° West 478 550 32,500 2,647 Level FlightAware UK
Fri 09:08:16 AM 50.8310 -9.0440 290° West 449 517 34,000 1,364 Climbing FlightAware ADS-B
Fri 09:09:06 AM 50.8600 -9.1720 290° West 446 513 34,000  Level FlightAware ADS-B
Fri 09:09:51 AM 50.8970 -9.3340 290° West 448 516 34,000  Level FlightAware ADS-B
Fri 09:10:36 AM 50.9250 -9.4590 290° West 448 516 34,000  Level FlightAware ADS-B
Fri 09:11:16 AM 50.9560 -9.5990 289° West 449 517 34,000  Level FlightAware ADS-B
Fri 09:12:01 AM 50.9840 -9.7260 289° West 449 517 34,000  Level FlightAware ADS-B
Fri 09:12:36 AM 51.0060 -9.8280 289° West 451 519 34,000  Level FlightAware ADS-B
Fri 09:13:21 AM 51.0370 -9.9680 289° West 451 519 34,000  Level FlightAware ADS-B
Fri 09:14:06 AM 51.0670 -10.1080 289° West 452 520 34,000  Level FlightAware ADS-B
Fri 09:14:46 AM 51.0970 -10.2470 289° West 452 520 34,000  Level FlightAware ADS-B
Fri 09:15:31 AM 51.1250 -10.3810 288° West 454 522 34,000  Level FlightAware ADS-B
Fri 09:17:01 AM 51.1860 -10.6680 289° West 454 522 34,000  Level FlightAware ADS-B
Fri 09:17:51 AM 51.2130 -10.8040 288° West 454 522 34,000  Level FlightAware ADS-B
Fri 09:18:31 AM 51.2350 -10.9120 288° West 454 522 34,000  Level FlightAware ADS-B
Fri 09:19:11 AM 51.2570 -11.0210 288° West 454 522 34,000  Level FlightAware ADS-B
Fri 09:19:51 AM 51.2800 -11.1290 289° West 454 522 34,000  Level FlightAware ADS-B
Fri 09:20:31 AM 51.3020 -11.2380 288° West 454 522 34,000  Level FlightAware ADS-B
Fri 09:21:21 AM 51.3290 -11.3740 288° West 454 522 34,000  Level FlightAware ADS-B
Fri 09:22:01 AM 51.3510 -11.4830 288° West 454 522 34,000  Level FlightAware ADS-B
Fri 09:22:41 AM 51.3730 -11.5910 288° West 454 522 34,000  Level FlightAware ADS-B
Fri 09:23:21 AM 51.3950 -11.7000 288° West 454 522 34,000  Level FlightAware ADS-B
Fri 09:24:01 AM 51.4170 -11.8090 288° West 454 522 34,000  Level FlightAware ADS-B
Fri 09:24:41 AM 51.4400 -11.9180 289° West 454 522 34,000  Level FlightAware ADS-B
Fri 09:25:31 AM 51.4670 -12.0540 288° West 454 522 34,000  Level FlightAware ADS-B
Fri 09:26:11 AM 51.4890 -12.1630 288° West 454 522 34,000 -26 Level FlightAware ADS-B
Fri 09:28:00 AM 51.5261 -12.4895 280° West  Level Estimated
Fri 09:29:00 AM 51.5461 -12.6695 280° West  Level Estimated
Fri 09:30:00 AM 51.5658 -12.8496 280° West  Level Estimated
Fri 09:31:00 AM 51.5853 -13.0299 280° West  Level Estimated
Fri 09:32:00 AM 51.6045 -13.2103 280° West  Level Estimated
Fri 09:33:00 AM 51.6234 -13.3909 280° West  Level Estimated
Fri 09:34:00 AM 51.6420 -13.5716 280° West  Level Estimated
Fri 09:35:00 AM 51.6604 -13.7525 279° West  Level Estimated
Fri 09:36:00 AM 51.6785 -13.9335 279° West  Level Estimated
Fri 09:37:00 AM 51.6963 -14.1147 279° West  Level Estimated
Fri 09:38:00 AM 51.7138 -14.2960 279° West  Level Estimated
Fri 09:39:00 AM 51.7310 -14.4775 279° West  Level Estimated
Fri 09:40:00 AM 51.7480 -14.6590 279° West  Level Estimated
Fri 09:41:00 AM 51.7647 -14.8408 279° West  Level Estimated
Fri 09:42:00 AM 51.7811 -15.0226 278° West  Level Estimated
Fri 09:43:00 AM 51.7972 -15.2046 278° West  Level Estimated
Fri 09:44:00 AM 51.8130 -15.3867 278° West  Level Estimated
Fri 09:45:00 AM 51.8286 -15.5689 278° West  Level Estimated
Fri 09:46:00 AM 51.8439 -15.7513 278° West  Level Estimated
Fri 09:47:00 AM 51.8595 -15.9414 278° West  Level Estimated
Fri 09:48:00 AM 51.8748 -16.1316 277° West  Level Estimated
Fri 09:49:00 AM 51.8892 -16.3145 277° West  Level Estimated
Fri 09:50:00 AM 51.9033 -16.4974 277° West  Level Estimated
Fri 09:51:00 AM 51.9172 -16.6805 277° West  Level Estimated
Fri 09:52:00 AM 51.9307 -16.8636 277° West  Level Estimated
Fri 09:53:00 AM 51.9440 -17.0469 277° West  Level Estimated
Fri 09:54:00 AM 51.9570 -17.2303 277° West  Level Estimated
Fri 09:55:00 AM 51.9697 -17.4138 276° West  Level Estimated
Fri 09:56:00 AM 51.9821 -17.5974 276° West  Level Estimated
Fri 09:57:00 AM 51.9943 -17.7811 276° West  Level Estimated
Fri 09:58:00 AM 52.0061 -17.9649 276° West  Level Estimated
Fri 09:59:00 AM 52.0177 -18.1488 276° West  Level Estimated
Fri 10:00:00 AM 52.0290 -18.3328 276° West  Level Estimated
Fri 10:01:00 AM 52.0400 -18.5169 276° West  Level Estimated
Fri 10:02:00 AM 52.0507 -18.7010 275° West  Level Estimated
Fri 10:03:00 AM 52.0611 -18.8853 275° West  Level Estimated
Fri 10:03:39 AM 53.0000 -20.0000 284° West 471 542 33,000  Level ETMS Enhanced Traffic Management System
Fri 10:04:00 AM 52.0712 -19.0697 275° West  Level Estimated
Fri 10:05:00 AM 52.0811 -19.2541 275° West  Level Estimated
Fri 10:06:00 AM 52.0906 -19.4386 275° West  Level Estimated
Fri 10:07:00 AM 52.0999 -19.6231 275° West  Level Estimated
Fri 10:08:00 AM 52.1088 -19.8078 275° West  Level Estimated
Fri 10:09:00 AM 53.1773 -21.2751 283° West 471 542 33,000  Level FlightAware Transoceanic
Fri 10:10:00 AM 53.2055 -21.4887 282° West 471 542 33,000  Level FlightAware Transoceanic
Fri 10:11:00 AM 53.2333 -21.7025 282° West 471 542 33,000  Level FlightAware Transoceanic
Fri 10:12:00 AM 53.2608 -21.9165 282° West 471 542 33,000  Level FlightAware Transoceanic
Fri 10:13:00 AM 53.2878 -22.1309 282° West 471 542 33,000  Level FlightAware Transoceanic
Fri 10:14:00 AM 53.3145 -22.3455 282° West 471 542 33,000  Level FlightAware Transoceanic
Fri 10:15:00 AM 53.3408 -22.5604 281° West 471 542 33,000  Level FlightAware Transoceanic
Fri 10:16:00 AM 53.3667 -22.7756 281° West 471 542 33,000  Level FlightAware Transoceanic
Fri 10:17:00 AM 53.3922 -22.9910 281° West 471 542 33,000  Level FlightAware Transoceanic
Fri 10:18:00 AM 53.4174 -23.2067 281° West 471 542 33,000  Level FlightAware Transoceanic
Fri 10:19:00 AM 53.4421 -23.4226 281° West 471 542 33,000  Level FlightAware Transoceanic
Fri 10:20:00 AM 53.4665 -23.6388 281° West 471 542 33,000  Level FlightAware Transoceanic
Fri 10:21:00 AM 53.4904 -23.8552 280° West 471 542 33,000  Level FlightAware Transoceanic
Fri 10:22:00 AM 53.5140 -24.0719 280° West 471 542 33,000  Level FlightAware Transoceanic
Fri 10:23:00 AM 53.5372 -24.2888 280° West 471 542 33,000  Level FlightAware Transoceanic
Fri 10:24:00 AM 53.5600 -24.5059 280° West 471 542 33,000  Level FlightAware Transoceanic
Fri 10:25:00 AM 53.5824 -24.7233 280° West 471 542 33,000  Level FlightAware Transoceanic
Fri 10:26:00 AM 53.6044 -24.9409 280° West 471 542 33,000  Level FlightAware Transoceanic
Fri 10:27:00 AM 53.6260 -25.1587 279° West 471 542 33,000  Level FlightAware Transoceanic
Fri 10:28:00 AM 53.6472 -25.3768 279° West 471 542 33,000  Level FlightAware Transoceanic
Fri 10:29:00 AM 53.6680 -25.5950 279° West 471 542 33,000  Level FlightAware Transoceanic
Fri 10:30:00 AM 53.6884 -25.8135 279° West 471 542 33,000  Level FlightAware Transoceanic
Fri 10:31:00 AM 53.7084 -26.0322 279° West 471 542 33,000  Level FlightAware Transoceanic
Fri 10:32:00 AM 53.7281 -26.2511 279° West 471 542 33,000  Level FlightAware Transoceanic
Fri 10:33:00 AM 53.7473 -26.4702 278° West 471 542 33,000  Level FlightAware Transoceanic
Fri 10:34:00 AM 53.7661 -26.6895 278° West 471 542 33,000  Level FlightAware Transoceanic
Fri 10:35:00 AM 53.7845 -26.9090 278° West 471 542 33,000  Level FlightAware Transoceanic
Fri 10:36:00 AM 53.8025 -27.1286 278° West 471 542 33,000  Level FlightAware Transoceanic
Fri 10:37:00 AM 53.8201 -27.3485 278° West 471 542 33,000  Level FlightAware Transoceanic
Fri 10:38:00 AM 53.8374 -27.5686 277° West 471 542 33,000  Level FlightAware Transoceanic
Fri 10:39:00 AM 53.8542 -27.7888 277° West 471 542 33,000  Level FlightAware Transoceanic
Fri 10:40:00 AM 53.8706 -28.0092 277° West 471 542 33,000  Level FlightAware Transoceanic
Fri 10:41:00 AM 53.8866 -28.2297 277° West 471 542 33,000  Level FlightAware Transoceanic
Fri 10:42:00 AM 53.9022 -28.4505 277° West 471 542 33,000  Level FlightAware Transoceanic
Fri 10:43:00 AM 53.9174 -28.6714 277° West 471 542 33,000  Level FlightAware Transoceanic
Fri 10:44:00 AM 53.9322 -28.8925 276° West 471 542 33,000  Level FlightAware Transoceanic
Fri 10:45:00 AM 53.9465 -29.1137 276° West 471 542 33,000  Level FlightAware Transoceanic
Fri 10:46:00 AM 53.9605 -29.3350 276° West 471 542 33,000  Level FlightAware Transoceanic
Fri 10:47:00 AM 53.9741 -29.5565 276° West 471 542 33,000  Level FlightAware Transoceanic
Fri 10:48:00 AM 53.9873 -29.7782 276° West 471 542 33,000  Level FlightAware Transoceanic
Fri 10:49:00 AM 53.9983 -29.9708 276° West  Level FlightAware Approximate
Fri 10:50:00 AM 54.0091 -30.1635 276° West  Level FlightAware Approximate
Fri 10:51:00 AM 54.0055 -30.1346 274° West  Level FlightAware Approximate
Fri 10:52:00 AM 54.0132 -30.3278 274° West  Level FlightAware Approximate
Fri 10:53:00 AM 54.0205 -30.5210 274° West  Level FlightAware Approximate
Fri 10:54:00 AM 54.0276 -30.7143 274° West  Level FlightAware Approximate
Fri 10:55:00 AM 54.0343 -30.9077 273° West  Level FlightAware Approximate
Fri 10:56:00 AM 54.0407 -31.1011 273° West  Level FlightAware Approximate
Fri 10:57:00 AM 54.0468 -31.2946 273° West  Level FlightAware Approximate
Fri 10:58:00 AM 54.0526 -31.4882 273° West  Level FlightAware Approximate
Fri 10:59:00 AM 54.0581 -31.6818 273° West  Level FlightAware Approximate
Fri 11:00:00 AM 54.0633 -31.8754 273° West  Level FlightAware Approximate
Fri 11:01:00 AM 54.0682 -32.0691 273° West  Level FlightAware Approximate
Fri 11:02:00 AM 54.0727 -32.2629 272° West  Level FlightAware Approximate
Fri 11:03:00 AM 54.0770 -32.4566 272° West  Level FlightAware Approximate
Fri 11:04:00 AM 54.0809 -32.6505 272° West  Level FlightAware Approximate
Fri 11:05:00 AM 54.0845 -32.8443 272° West  Level FlightAware Approximate
Fri 11:06:00 AM 54.0878 -33.0382 272° West  Level FlightAware Approximate
Fri 11:07:00 AM 54.0908 -33.2321 272° West  Level FlightAware Approximate
Fri 11:08:00 AM 54.0935 -33.4261 271° West  Level FlightAware Approximate
Fri 11:09:00 AM 54.0959 -33.6200 271° West  Level FlightAware Approximate
Fri 11:10:00 AM 54.0980 -33.8140 271° West  Level FlightAware Approximate
Fri 11:11:00 AM 54.0997 -34.0080 271° West  Level FlightAware Approximate
Fri 11:12:00 AM 54.1012 -34.2020 271° West  Level FlightAware Approximate
Fri 11:13:00 AM 54.1023 -34.3961 271° West  Level FlightAware Approximate
Fri 11:14:00 AM 54.1031 -34.5901 270° West  Level FlightAware Approximate
Fri 11:15:00 AM 54.1036 -34.7842 270° West  Level FlightAware Approximate
Fri 11:16:00 AM 54.1038 -34.9782 270° West  Level FlightAware Approximate
Fri 11:17:00 AM 54.1037 -35.1723 270° West  Level FlightAware Approximate
Fri 11:18:00 AM 54.1032 -35.3663 270° West  Level FlightAware Approximate
Fri 11:19:00 AM 54.1025 -35.5603 270° West  Level FlightAware Approximate
Fri 11:20:00 AM 54.1015 -35.7544 270° West  Level FlightAware Approximate
Fri 11:21:00 AM 54.1001 -35.9484 269° West  Level FlightAware Approximate
Fri 11:22:00 AM 54.0984 -36.1424 269° West  Level FlightAware Approximate
Fri 11:23:00 AM 54.0964 -36.3364 269° West  Level FlightAware Approximate
Fri 11:24:00 AM 54.0941 -36.5304 269° West  Level FlightAware Approximate
Fri 11:25:00 AM 54.0915 -36.7243 269° West  Level FlightAware Approximate
Fri 11:26:00 AM 54.0886 -36.9182 269° West  Level FlightAware Approximate
Fri 11:27:00 AM 54.0853 -37.1121 268° West  Level FlightAware Approximate
Fri 11:28:00 AM 54.0818 -37.3060 268° West  Level FlightAware Approximate
Fri 11:29:00 AM 54.0779 -37.4998 268° West  Level FlightAware Approximate
Fri 11:30:00 AM 54.0737 -37.6936 268° West  Level FlightAware Approximate
Fri 11:31:00 AM 54.0692 -37.8874 268° West  Level FlightAware Approximate
Fri 11:32:00 AM 54.0644 -38.0811 268° West  Level FlightAware Approximate
Fri 11:33:00 AM 54.0593 -38.2747 268° West  Level FlightAware Approximate
Fri 11:34:00 AM 54.0539 -38.4683 267° West  Level FlightAware Approximate
Fri 11:35:00 AM 54.0482 -38.6619 267° West  Level FlightAware Approximate
Fri 11:36:00 AM 54.0421 -38.8554 267° West  Level FlightAware Approximate
Fri 11:37:00 AM 54.0358 -39.0489 267° West  Level FlightAware Approximate
Fri 11:38:00 AM 54.0291 -39.2422 267° West  Level FlightAware Approximate
Fri 11:39:00 AM 54.0221 -39.4356 267° West  Level FlightAware Approximate
Fri 11:40:00 AM 54.0149 -39.6288 266° West  Level FlightAware Approximate
Fri 11:41:00 AM 54.0073 -39.8220 266° West  Level FlightAware Approximate
Fri 11:42:00 AM 53.9978 -40.0147 256° West  Level FlightAware Approximate
Fri 11:43:00 AM 53.9694 -40.2021 256° West  Level FlightAware Approximate
Fri 11:44:00 AM 53.9408 -40.3892 255° West  Level FlightAware Approximate
Fri 11:45:00 AM 53.9119 -40.5761 255° West  Level FlightAware Approximate
Fri 11:46:00 AM 53.8826 -40.7627 255° West  Level FlightAware Approximate
Fri 11:47:00 AM 53.8531 -40.9490 255° West  Level FlightAware Approximate
Fri 11:48:00 AM 53.8233 -41.1351 255° West  Level FlightAware Approximate
Fri 11:49:00 AM 53.7933 -41.3209 255° West  Level FlightAware Approximate
Fri 11:50:00 AM 53.7629 -41.5065 255° West  Level FlightAware Approximate
Fri 11:51:00 AM 53.7322 -41.6918 254° West  Level FlightAware Approximate
Fri 11:52:00 AM 53.7013 -41.8768 254° West  Level FlightAware Approximate
Fri 11:53:00 AM 53.6701 -42.0615 254° West  Level FlightAware Approximate
Fri 11:54:00 AM 53.6385 -42.2460 254° West  Level FlightAware Approximate
Fri 11:55:00 AM 53.6067 -42.4302 254° West  Level FlightAware Approximate
Fri 11:56:00 AM 53.5747 -42.6141 254° West  Level FlightAware Approximate
Fri 11:57:00 AM 53.5423 -42.7977 254° West  Level FlightAware Approximate
Fri 11:58:00 AM 53.5097 -42.9811 253° West  Level FlightAware Approximate
Fri 11:59:00 AM 53.4767 -43.1641 253° West  Level FlightAware Approximate
Fri 12:00:00 PM 53.4435 -43.3469 253° West  Level FlightAware Approximate
Fri 12:01:00 PM 53.4101 -43.5294 253° West  Level FlightAware Approximate
Fri 12:02:00 PM 53.3763 -43.7116 253° West  Level FlightAware Approximate
Fri 12:03:00 PM 53.3423 -43.8935 253° West  Level FlightAware Approximate
Fri 12:04:00 PM 53.3080 -44.0751 253° West  Level FlightAware Approximate
Fri 12:05:00 PM 53.2734 -44.2565 252° West  Level FlightAware Approximate
Fri 12:06:00 PM 53.2385 -44.4375 252° West  Level FlightAware Approximate
Fri 12:07:00 PM 53.2034 -44.6182 252° West  Level FlightAware Approximate
Fri 12:08:00 PM 53.1680 -44.7987 252° West  Level FlightAware Approximate
Fri 12:09:00 PM 53.1323 -44.9788 252° West  Level FlightAware Approximate
Fri 12:10:00 PM 53.0963 -45.1587 252° West  Level FlightAware Approximate
Fri 12:11:00 PM 53.0601 -45.3382 252° West  Level FlightAware Approximate
Fri 12:12:00 PM 53.0236 -45.5174 251° West  Level FlightAware Approximate
Fri 12:13:00 PM 52.9869 -45.6964 251° West  Level FlightAware Approximate
Fri 12:14:00 PM 52.9498 -45.8750 251° West  Level FlightAware Approximate
Fri 12:15:00 PM 52.9125 -46.0533 251° West  Level FlightAware Approximate
Fri 12:16:00 PM 52.8750 -46.2313 251° West  Level FlightAware Approximate
Fri 12:17:00 PM 52.8372 -46.4091 251° West  Level FlightAware Approximate
Fri 12:18:00 PM 52.7991 -46.5865 251° West  Level FlightAware Approximate
Fri 12:19:00 PM 52.7607 -46.7635 250° West  Level FlightAware Approximate
Fri 12:20:00 PM 52.7221 -46.9403 250° West  Level FlightAware Approximate
Fri 12:21:00 PM 52.6832 -47.1168 250° West  Level FlightAware Approximate
Fri 12:22:00 PM 52.6441 -47.2929 250° West  Level FlightAware Approximate
Fri 12:23:00 PM 52.6047 -47.4688 250° West  Level FlightAware Approximate
Fri 12:24:00 PM 52.5650 -47.6443 250° West  Level FlightAware Approximate
Fri 12:25:00 PM 52.5251 -47.8195 250° West  Level FlightAware Approximate
Fri 12:25:38 PM 51.8167 -50.7833 249° West 500 575 33,000  Level Gander Center
Fri 12:26:00 PM 52.4849 -47.9943 249° West  Level FlightAware Approximate
Fri 12:26:38 PM 51.7667 -51.0000 250° West 490 564 33,000  Level Gander Center
Fri 12:27:00 PM 52.4445 -48.1689 249° West  Level FlightAware Approximate
Fri 12:27:38 PM 51.7167 -51.2000 248° West 490 564 33,000  Level Gander Center
Fri 12:28:00 PM 52.4038 -48.3431 249° West  Level FlightAware Approximate
Fri 12:28:38 PM 51.6667 -51.4000 248° West 490 564 34,600  Level Gander Center
Fri 12:29:00 PM 52.3628 -48.5170 249° West  Level FlightAware Approximate
Fri 12:29:31 PM 51.6000 -51.5500 234° Southwest 480 552 35,600  Level Gander Center
Fri 12:30:00 PM 52.3216 -48.6906 249° West  Level FlightAware Approximate
Fri 12:30:38 PM 51.5167 -51.7833 240° Southwest 480 552 37,000  Level Gander Center
Fri 12:31:00 PM 52.2801 -48.8639 249° West  Level FlightAware Approximate
Fri 12:31:38 PM 51.4667 -51.9500 244° Southwest 480 552 37,700  Level Gander Center
Fri 12:32:38 PM 51.4000 -52.1500 242° Southwest 480 552 38,000 209 Climbing Gander Center
Fri 12:33:04 PM 51.3667 -52.2000 223° Southwest 480 552 38,000  Level Moncton Center
Fri 12:34:04 PM 51.3000 -52.4000 242° Southwest 480 552 38,000  Level Moncton Center
Fri 12:34:38 PM 51.2667 -52.5000 242° Southwest 470 541 38,000  Level Gander Center
Fri 12:35:38 PM 51.2000 -52.6667 237° Southwest 470 541 38,000  Level Gander Center
Fri 12:36:38 PM 51.1333 -52.8500 240° Southwest 470 541 38,000  Level Gander Center
Fri 12:37:38 PM 51.0667 -53.0500 242° Southwest 470 541 38,000  Level Gander Center
Fri 12:38:04 PM 51.0333 -53.1333 238° Southwest 470 541 38,000  Level Moncton Center
Fri 12:39:04 PM 50.9833 -53.2833 242° Southwest 470 541 38,000  Level Moncton Center
Fri 12:39:38 PM 50.9333 -53.4167 239° Southwest 470 541 38,000  Level Gander Center
Fri 12:40:38 PM 50.8667 -53.5833 238° Southwest 480 552 38,000  Level Gander Center
Fri 12:41:38 PM 50.8000 -53.7667 240° Southwest 470 541 38,000  Level Gander Center
Fri 12:42:38 PM 50.7333 -53.9333 238° Southwest 470 541 38,000  Level Gander Center
Fri 12:43:04 PM 50.7167 -54.0167 252° West 480 552 38,000  Level Moncton Center
Fri 12:43:38 PM 50.6667 -54.1333 236° Southwest 470 541 38,000  Level Gander Center
Fri 12:44:38 PM 50.6167 -54.3000 245° Southwest 470 541 38,000  Level Gander Center
Fri 12:45:04 PM 50.5667 -54.3833 227° Southwest 470 541 38,000  Level Moncton Center
Fri 12:46:04 PM 50.5000 -54.5333 235° Southwest 470 541 38,000  Level Moncton Center
Fri 12:46:31 PM 50.4833 -54.6333 255° West 470 541 38,000  Level Gander Center
Fri 12:47:31 PM 50.4000 -54.8000 232° Southwest 460 529 38,000  Level Gander Center
Fri 12:48:38 PM 50.3333 -54.9833 240° Southwest 460 529 38,000  Level Gander Center
Fri 12:49:38 PM 50.2667 -55.1500 238° Southwest 460 529 38,000  Level Gander Center
Fri 12:50:38 PM 50.2000 -55.3500 243° Southwest 460 529 38,000  Level Gander Center
Fri 12:51:38 PM 50.1333 -55.4833 232° Southwest 460 529 38,000  Level Gander Center
Fri 12:52:38 PM 50.0667 -55.6833 243° Southwest 460 529 38,000  Level Gander Center
Fri 12:53:38 PM 49.9833 -55.8500 232° Southwest 460 529 38,000  Level Gander Center
Fri 12:54:38 PM 49.9333 -56.0000 243° Southwest 460 529 38,000  Level Gander Center
Fri 12:55:38 PM 49.8500 -56.1667 232° Southwest 460 529 38,000  Level Gander Center
Fri 12:56:38 PM 49.8000 -56.3333 245° Southwest 460 529 38,000  Level Gander Center
Fri 12:57:38 PM 49.7167 -56.5167 235° Southwest 450 518 38,000  Level Gander Center
Fri 12:58:38 PM 49.6667 -56.6833 245° Southwest 460 529 38,000  Level Gander Center
Fri 12:59:38 PM 49.5833 -56.8500 232° Southwest 460 529 38,000  Level Gander Center
Fri 01:00:38 PM 49.5167 -57.0000 236° Southwest 450 518 38,000  Level Gander Center
Fri 01:01:38 PM 49.4500 -57.1667 238° Southwest 450 518 38,000  Level Gander Center
Fri 01:02:38 PM 49.3833 -57.3333 238° Southwest 440 506 38,000  Level Gander Center
Fri 01:03:38 PM 49.3167 -57.4833 236° Southwest 440 506 38,000  Level Gander Center
Fri 01:04:38 PM 49.2500 -57.6500 239° Southwest 440 506 38,000  Level Gander Center
Fri 01:05:38 PM 49.1833 -57.7833 233° Southwest 430 495 38,000  Level Gander Center
Fri 01:06:38 PM 49.1000 -57.9333 230° Southwest 430 495 38,000  Level Gander Center
Fri 01:07:38 PM 49.0333 -58.1000 239° Southwest 440 506 38,000  Level Gander Center
Fri 01:08:04 PM 49.0167 -58.1667 249° West 440 506 38,000  Level Moncton Center
Fri 01:09:04 PM 48.9500 -58.3333 239° Southwest 440 506 38,000  Level Moncton Center
Fri 01:10:04 PM 48.8667 -58.4667 226° Southwest 440 506 38,000  Level Moncton Center
Fri 01:10:38 PM 48.8333 -58.5667 243° Southwest 440 506 38,000  Level Gander Center
Fri 01:11:38 PM 48.7667 -58.7167 236° Southwest 440 506 38,000  Level Gander Center
Fri 01:12:04 PM 48.7333 -58.7833 233° Southwest 440 506 38,000  Level Moncton Center
Fri 01:13:04 PM 48.6500 -58.9167 227° Southwest 430 495 38,000  Level Moncton Center
Fri 01:13:38 PM 48.6333 -59.0000 253° West 430 495 38,000  Level Gander Center
Fri 01:14:04 PM 48.6000 -59.0833 239° Southwest 430 495 38,000  Level Moncton Center
Fri 01:14:38 PM 48.5667 -59.1667 239° Southwest 430 495 38,000  Level Gander Center
Fri 01:15:04 PM 48.5333 -59.2333 233° Southwest 430 495 38,000  Level Moncton Center
Fri 01:16:04 PM 48.4667 -59.3667 233° Southwest 420 483 38,000  Level Moncton Center
Fri 01:17:04 PM 48.4000 -59.5333 239° Southwest 420 483 38,000  Level Moncton Center
Fri 01:18:04 PM 48.3333 -59.6667 233° Southwest 420 483 38,000  Level Moncton Center
Fri 01:19:04 PM 48.2667 -59.8167 236° Southwest 420 483 38,000  Level Moncton Center
Fri 01:20:38 PM 48.1500 -60.0333 231° Southwest 410 472 38,000  Level Gander Center
Fri 01:21:04 PM 48.1333 -60.0833 243° Southwest 410 472 38,000  Level Moncton Center
Fri 01:22:04 PM 48.0667 -60.2167 233° Southwest 400 460 38,000  Level Moncton Center
Fri 01:23:04 PM 48.0000 -60.3500 233° Southwest 400 460 38,000  Level Moncton Center
Fri 01:24:04 PM 47.9333 -60.5000 236° Southwest 390 449 38,000  Level Moncton Center
Fri 01:25:04 PM 47.8667 -60.6333 233° Southwest 390 449 38,000  Level Moncton Center
Fri 01:26:04 PM 47.8167 -60.7500 237° Southwest 390 449 38,000  Level Moncton Center
Fri 01:27:04 PM 47.7500 -60.8833 233° Southwest 390 449 38,000  Level Moncton Center
Fri 01:27:38 PM 47.7167 -60.9667 239° Southwest 400 460 38,000  Level Gander Center
Fri 01:28:38 PM 47.6500 -61.1167 237° Southwest 410 472 38,000  Level Gander Center
Fri 01:29:04 PM 47.6000 -61.1500 204° Southwest 400 460 38,000  Level Moncton Center
Fri 01:30:04 PM 47.5333 -61.2667 230° Southwest 400 460 38,000  Level Moncton Center
Fri 01:31:04 PM 47.4833 -61.4167 244° Southwest 400 460 38,000  Level Moncton Center
Fri 01:32:04 PM 47.4167 -61.5500 234° Southwest 410 472 38,000  Level Moncton Center
Fri 01:33:04 PM 47.3500 -61.6833 234° Southwest 400 460 38,000  Level Moncton Center
Fri 01:33:38 PM 47.3167 -61.7667 239° Southwest 410 472 38,000  Level Gander Center
Fri 01:34:38 PM 47.2500 -61.9000 234° Southwest 400 460 38,000  Level Gander Center
Fri 01:35:04 PM 47.2167 -61.9333 214° Southwest 400 460 38,000  Level Moncton Center
Fri 01:36:04 PM 47.1333 -62.0833 231° Southwest 400 460 38,000  Level Moncton Center
Fri 01:37:04 PM 47.0833 -62.2167 241° Southwest 400 460 38,000  Level Moncton Center
Fri 01:38:04 PM 47.0167 -62.3333 230° Southwest 400 460 38,000  Level Moncton Center
Fri 01:38:38 PM 46.9667 -62.4333 234° Southwest 400 460 38,000  Level Gander Center
Fri 01:39:04 PM 46.9500 -62.4833 244° Southwest 400 460 38,000  Level Moncton Center
Fri 01:40:04 PM 46.8833 -62.6167 234° Southwest 400 460 38,000  Level Moncton Center
Fri 01:41:38 PM 46.7667 -62.8167 230° Southwest 400 460 38,000  Level Gander Center
Fri 01:42:04 PM 46.7500 -62.8500 234° Southwest 400 460 38,000  Level Moncton Center
Fri 01:43:04 PM 46.6833 -62.9833 234° Southwest 400 460 38,000  Level Moncton Center
Fri 01:44:04 PM 46.6000 -63.1000 224° Southwest 390 449 38,000  Level Moncton Center
Fri 01:45:04 PM 46.5333 -63.2333 234° Southwest 390 449 38,000  Level Moncton Center
Fri 01:50:46 PM 46.1800 -63.9530 234° Southwest 390 449 38,000  Level FlightAware ADS-B
Fri 01:51:21 PM 46.1460 -64.0140 231° Southwest 390 449 38,000  Level FlightAware ADS-B
Fri 01:52:11 PM 46.0870 -64.1230 232° Southwest 393 452 38,000  Level FlightAware ADS-B
Fri 01:52:46 PM 46.0470 -64.1960 232° Southwest 394 453 38,000  Level FlightAware ADS-B
Fri 01:53:31 PM 46.0020 -64.2750 231° Southwest 394 453 38,000  Level FlightAware ADS-B
Fri 01:54:06 PM 45.9550 -64.3610 232° Southwest 393 452 38,000  Level FlightAware ADS-B
Fri 01:54:56 PM 45.8980 -64.4630 231° Southwest 394 453 38,000  Level FlightAware ADS-B
Fri 01:55:41 PM 45.8480 -64.5530 231° Southwest 394 453 38,000  Level FlightAware ADS-B
Fri 01:56:21 PM 45.8020 -64.6350 231° Southwest 391 450 38,000  Level FlightAware ADS-B
Fri 01:57:06 PM 45.7500 -64.7270 231° Southwest 391 450 38,000  Level FlightAware ADS-B
Fri 01:57:46 PM 45.7060 -64.8050 231° Southwest 393 452 38,000  Level FlightAware ADS-B
Fri 01:58:26 PM 45.6590 -64.8880 231° Southwest 394 453 38,000  Level FlightAware ADS-B
Fri 01:59:11 PM 45.6080 -64.9790 231° Southwest 396 456 38,000  Level FlightAware ADS-B
Fri 01:59:51 PM 45.5630 -65.0580 231° Southwest 395 455 38,000  Level FlightAware ADS-B
Fri 02:00:36 PM 45.5110 -65.1480 231° Southwest 395 455 38,000  Level FlightAware ADS-B
Fri 02:01:16 PM 45.4640 -65.2310 231° Southwest 395 455 38,000  Level FlightAware ADS-B
Fri 02:01:56 PM 45.4180 -65.3110 231° Southwest 394 453 38,000  Level FlightAware ADS-B
Fri 02:02:41 PM 45.3660 -65.4010 231° Southwest 395 455 38,000  Level FlightAware ADS-B
Fri 02:03:21 PM 45.3200 -65.4800 230° Southwest 397 457 38,000  Level FlightAware ADS-B
Fri 02:04:06 PM 45.2660 -65.5730 230° Southwest 399 459 38,000  Level FlightAware ADS-B
Fri 02:04:46 PM 45.2220 -65.6500 231° Southwest 399 459 38,000  Level FlightAware ADS-B
Fri 02:05:26 PM 45.1730 -65.7330 230° Southwest 399 459 38,000  Level FlightAware ADS-B
Fri 02:06:11 PM 45.1210 -65.8220 230° Southwest 399 459 38,000  Level FlightAware ADS-B
Fri 02:06:51 PM 45.0730 -65.9040 230° Southwest 399 459 38,000  Level FlightAware ADS-B
Fri 02:07:36 PM 45.0210 -65.9920 230° Southwest 396 456 38,000  Level FlightAware ADS-B
Fri 02:08:16 PM 44.9740 -66.0730 231° Southwest 396 456 38,000  Level FlightAware ADS-B
Fri 02:08:56 PM 44.9260 -66.1530 230° Southwest 398 458 38,000  Level FlightAware ADS-B
Fri 02:09:41 PM 44.8730 -66.2420 230° Southwest 398 458 38,000  Level FlightAware ADS-B
Fri 02:10:21 PM 44.8260 -66.3220 230° Southwest 398 458 38,000  Level FlightAware ADS-B
Fri 02:11:06 PM 44.7720 -66.4120 230° Southwest 399 459 38,000  Level FlightAware ADS-B
Fri 02:11:46 PM 44.7270 -66.4880 230° Southwest 399 459 38,000  Level FlightAware ADS-B
Fri 02:12:21 PM 44.6860 -66.5560 230° Southwest 400 460 38,000  Level FlightAware ADS-B
Fri 02:13:11 PM 44.6250 -66.6580 230° Southwest 400 460 38,000  Level FlightAware ADS-B
Fri 02:13:51 PM 44.5820 -66.7290 230° Southwest 400 460 38,000  Level FlightAware ADS-B
Fri 02:14:36 PM 44.5230 -66.8250 229° Southwest 402 463 38,000  Level FlightAware ADS-B
Fri 02:15:16 PM 44.4740 -66.9050 229° Southwest 402 463 38,000  Level FlightAware ADS-B
Fri 02:15:56 PM 44.4270 -66.9860 231° Southwest 400 460 38,000  Level FlightAware ADS-B
Fri 02:16:41 PM 44.3930 -67.0910 246° West 393 452 38,000  Level FlightAware ADS-B
Fri 02:17:21 PM 44.3680 -67.1880 250° West 394 453 38,000  Level FlightAware ADS-B
Fri 02:18:01 PM 44.3440 -67.2850 251° West 396 456 38,000  Level FlightAware ADS-B
Fri 02:18:46 PM 44.3170 -67.3890 250° West 397 457 38,000  Level FlightAware ADS-B
Fri 02:19:26 PM 44.2920 -67.4860 250° West 397 457 38,000  Level FlightAware ADS-B
Fri 02:20:11 PM 44.2630 -67.5960 250° West 397 457 38,000  Level FlightAware ADS-B
Fri 02:20:51 PM 44.2380 -67.6930 250° West 400 460 38,000  Level FlightAware ADS-B
Fri 02:21:31 PM 44.2140 -67.7850 250° West 401 461 38,000  Level FlightAware ADS-B
Fri 02:22:16 PM 44.1840 -67.8970 250° West 403 464 38,000  Level FlightAware ADS-B
Fri 02:23:01 PM 44.1550 -68.0070 250° West 404 465 38,000  Level FlightAware ADS-B
Fri 02:23:41 PM 44.1290 -68.1070 250° West 407 468 38,000  Level FlightAware ADS-B
Fri 02:24:21 PM 44.1040 -68.2010 250° West 408 470 38,000  Level FlightAware ADS-B
Fri 02:25:01 PM 44.0770 -68.2990 249° West 408 470 38,000  Level FlightAware ADS-B
Fri 02:25:46 PM 44.0470 -68.4120 250° West 408 470 38,000  Level FlightAware ADS-B
Fri 02:26:26 PM 44.0210 -68.5090 250° West 409 471 38,000  Level FlightAware ADS-B
Fri 02:27:11 PM 43.9930 -68.6120 249° West 408 470 38,000  Level FlightAware ADS-B
Fri 02:27:46 PM 43.9720 -68.6880 249° West 407 468 38,000  Level FlightAware ADS-B
Fri 02:29:01 PM 43.9200 -68.8780 249° West 407 468 38,000  Level FlightAware ADS-B
Fri 02:31:06 PM 43.8350 -69.1860 249° West 403 464 38,000  Level FlightAware ADS-B
Fri 02:31:51 PM 43.8040 -69.2960 249° West 402 463 38,000  Level FlightAware ADS-B
Fri 02:32:31 PM 43.7780 -69.3900 249° West 403 464 38,000  Level FlightAware ADS-B
Fri 02:33:16 PM 43.7460 -69.5030 249° West 405 466 38,000  Level FlightAware ADS-B
Fri 02:33:56 PM 43.7190 -69.5980 249° West 406 467 38,000  Level FlightAware ADS-B
Fri 02:34:36 PM 43.6910 -69.6970 249° West 408 470 38,000  Level FlightAware ADS-B
Fri 02:35:21 PM 43.6610 -69.8040 249° West 408 470 38,000  Level FlightAware ADS-B
Fri 02:36:01 PM 43.6320 -69.9030 248° West 408 470 38,000  Level FlightAware ADS-B
Fri 02:36:46 PM 43.6020 -70.0100 249° West 408 470 38,000  Level FlightAware ADS-B
Fri 02:37:26 PM 43.5740 -70.1050 248° West 407 468 38,000  Level FlightAware ADS-B
Fri 02:38:06 PM 43.5460 -70.2020 248° West 409 471 38,000  Level FlightAware ADS-B
Fri 02:38:51 PM 43.5150 -70.3090 248° West 412 474 38,000  Level FlightAware ADS-B
Fri 02:39:31 PM 43.4860 -70.4080 248° West 412 474 38,000  Level FlightAware ADS-B
Fri 02:40:11 PM 43.4580 -70.5050 248° West 411 473 38,000  Level FlightAware ADS-B
Fri 02:40:56 PM 43.4220 -70.6150 246° West 410 472 38,000  Level FlightAware ADS-B
Fri 02:41:36 PM 43.3760 -70.7000 233° Southwest 410 472 38,000  Level FlightAware ADS-B
Fri 02:42:21 PM 43.3250 -70.7880 231° Southwest 411 473 38,000  Level FlightAware ADS-B
Fri 02:43:01 PM 43.2760 -70.8700 231° Southwest 412 474 38,000  Level FlightAware ADS-B
Fri 02:43:46 PM 43.2220 -70.9630 231° Southwest 412 474 38,000  Level FlightAware ADS-B
Fri 02:44:26 PM 43.1740 -71.0440 231° Southwest 412 474 38,000  Level FlightAware ADS-B
Fri 02:45:06 PM 43.1270 -71.1250 232° Southwest 413 475 38,000  Level FlightAware ADS-B
Fri 02:45:51 PM 43.0740 -71.2150 231° Southwest 413 475 38,000  Level FlightAware ADS-B
Fri 02:46:31 PM 43.0250 -71.2960 230° Southwest 413 475 38,000  Level FlightAware ADS-B
Fri 02:47:16 PM 42.9700 -71.3900 231° Southwest 413 475 38,000  Level FlightAware ADS-B
Fri 02:47:56 PM 42.9240 -71.4670 231° Southwest 413 475 38,000  Level FlightAware ADS-B
Fri 02:48:36 PM 42.8750 -71.5480 230° Southwest 413 475 38,000  Level FlightAware ADS-B
Fri 02:49:21 PM 42.8190 -71.6420 231° Southwest 414 476 38,000  Level FlightAware ADS-B
Fri 02:50:01 PM 42.7710 -71.7210 230° Southwest 414 476 38,000  Level FlightAware ADS-B
Fri 02:50:46 PM 42.7170 -71.8110 231° Southwest 416 479 38,000  Level FlightAware ADS-B
Fri 02:51:26 PM 42.6690 -71.8900 230° Southwest 414 476 38,000  Level FlightAware ADS-B
Fri 02:52:06 PM 42.6210 -71.9700 231° Southwest 414 476 38,000  Level FlightAware ADS-B
Fri 02:52:51 PM 42.5640 -72.0640 231° Southwest 412 474 38,000  Level FlightAware ADS-B
Fri 02:53:31 PM 42.5160 -72.1420 230° Southwest 410 472 38,000  Level FlightAware ADS-B
Fri 02:54:11 PM 42.4680 -72.2210 231° Southwest 411 473 38,000  Level FlightAware ADS-B
Fri 02:54:56 PM 42.4140 -72.3090 230° Southwest 415 478 38,000  Level FlightAware ADS-B
Fri 02:55:36 PM 42.3650 -72.3880 230° Southwest 414 476 38,000  Level FlightAware ADS-B
Fri 02:56:21 PM 42.3090 -72.4790 230° Southwest 411 473 38,000  Level FlightAware ADS-B
Fri 02:57:01 PM 42.2610 -72.5570 230° Southwest 407 468 38,000  Level FlightAware ADS-B
Fri 02:57:46 PM 42.2080 -72.6420 230° Southwest 406 467 38,000  Level FlightAware ADS-B
Fri 02:58:26 PM 42.1580 -72.7220 230° Southwest 404 465 38,000  Level FlightAware ADS-B
Fri 02:58:57 PM 42.1213 -72.7851 232° Southwest 406 467 38,000  Level FlightAware ADS-B
Fri 02:59:40 PM 42.0719 -72.8708 232° Southwest 406 467 38,000  Level FlightAware ADS-B
Fri 03:00:10 PM 42.0367 -72.9310 232° Southwest 407 468 38,000  Level FlightAware ADS-B
Fri 03:00:42 PM 41.9978 -72.9946 231° Southwest 407 468 38,000  Level FlightAware ADS-B
Fri 03:01:14 PM 41.9586 -73.0551 229° Southwest 408 470 38,000  Level FlightAware ADS-B
Fri 03:01:44 PM 41.9212 -73.1120 229° Southwest 409 471 38,000  Level FlightAware ADS-B
Fri 03:02:18 PM 41.8788 -73.1748 228° Southwest 410 472 38,000  Level FlightAware ADS-B
Fri 03:02:50 PM 41.8374 -73.2365 228° Southwest 409 471 38,000  Level FlightAware ADS-B
Fri 03:03:21 PM 41.8010 -73.2910 228° Southwest 407 468 38,000  Level FlightAware ADS-B
Fri 03:03:31 PM 41.7860 -73.3136 228° Southwest 407 468 38,000  Level FlightAware ADS-B
Fri 03:04:03 PM 41.7468 -73.3723 228° Southwest 409 471 38,000  Level FlightAware ADS-B
Fri 03:04:33 PM 41.7088 -73.4289 228° Southwest 410 472 38,000  Level FlightAware ADS-B
Fri 03:05:07 PM 41.6646 -73.4946 228° Southwest 414 476 38,000  Level FlightAware ADS-B
Fri 03:05:38 PM 41.6251 -73.5532 228° Southwest 416 479 38,000  Level FlightAware ADS-B
Fri 03:06:11 PM 41.5831 -73.6153 228° Southwest 416 479 38,000  Level FlightAware ADS-B
Fri 03:06:41 PM 41.5442 -73.6726 228° Southwest 416 479 38,000  Level FlightAware ADS-B
Fri 03:07:11 PM 41.5051 -73.7302 228° Southwest 416 479 38,000  Level FlightAware ADS-B
Fri 03:07:42 PM 41.4657 -73.7881 228° Southwest 416 479 38,000  Level FlightAware ADS-B
Fri 03:08:13 PM 41.4261 -73.8461 228° Southwest 417 480 38,000  Level FlightAware ADS-B
Fri 03:08:43 PM 41.3867 -73.9039 228° Southwest 416 479 38,000  Level FlightAware ADS-B
Fri 03:09:13 PM 41.3475 -73.9611 228° Southwest 416 479 38,000  Level FlightAware ADS-B
Fri 03:09:42 PM 41.3105 -74.0151 228° Southwest 416 479 38,000  Level FlightAware ADS-B
Fri 03:09:46 PM 41.3052 -74.0227 227° Southwest 416 479 38,000  Level FlightAware ADS-B
Fri 03:10:19 PM 41.2626 -74.0848 228° Southwest 417 480 38,000  Level FlightAware ADS-B
Fri 03:10:49 PM 41.2232 -74.1420 228° Southwest 418 481 38,000  Level FlightAware ADS-B
Fri 03:11:19 PM 41.1839 -74.1991 228° Southwest 420 483 38,000  Level FlightAware ADS-B
Fri 03:11:56 PM 41.1362 -74.2681 227° Southwest 420 483 38,000  Level FlightAware ADS-B
Fri 03:12:28 PM 41.0938 -74.3293 227° Southwest 420 483 38,000  Level FlightAware ADS-B
Fri 03:12:59 PM 41.0529 -74.3882 227° Southwest 423 487 38,000  Level FlightAware ADS-B
Fri 03:13:25 PM 41.0180 -74.4384 227° Southwest 423 487 38,000  Level FlightAware ADS-B
Fri 03:13:56 PM 40.9782 -74.4956 227° Southwest 423 487 38,000  Level FlightAware ADS-B
Fri 03:14:28 PM 40.9357 -74.5563 227° Southwest 423 487 38,000  Level FlightAware ADS-B
Fri 03:15:01 PM 40.8917 -74.6193 227° Southwest 421 484 38,000  Level FlightAware ADS-B
Fri 03:15:32 PM 40.8504 -74.6784 227° Southwest 422 486 38,000  Level FlightAware ADS-B
Fri 03:16:03 PM 40.8096 -74.7363 227° Southwest 422 486 38,000  Level FlightAware ADS-B
Fri 03:16:34 PM 40.7686 -74.7945 227° Southwest 422 486 38,000  Level FlightAware ADS-B
Fri 03:17:05 PM 40.7268 -74.8539 227° Southwest 423 487 38,000  Level FlightAware ADS-B
Fri 03:17:36 PM 40.6862 -74.9113 227° Southwest 422 486 38,000  Level FlightAware ADS-B
Fri 03:18:06 PM 40.6458 -74.9683 227° Southwest 421 484 38,000  Level FlightAware ADS-B
Fri 03:18:42 PM 40.5987 -75.0349 227° Southwest 421 484 38,000  Level FlightAware ADS-B
Fri 03:19:14 PM 40.5560 -75.0947 227° Southwest 421 484 38,000  Level FlightAware ADS-B
Fri 03:19:44 PM 40.5157 -75.1514 227° Southwest 420 483 38,000  Level FlightAware ADS-B
Fri 03:20:15 PM 40.4753 -75.2081 227° Southwest 421 484 38,000  Level FlightAware ADS-B
Fri 03:20:47 PM 40.4325 -75.2678 227° Southwest 421 484 38,000  Level FlightAware ADS-B
Fri 03:21:17 PM 40.3920 -75.3245 227° Southwest 417 480 38,000  Level FlightAware ADS-B
Fri 03:21:48 PM 40.3520 -75.3804 227° Southwest 415 478 38,000  Level FlightAware ADS-B
Fri 03:22:19 PM 40.3114 -75.4367 227° Southwest 415 478 38,000  Level FlightAware ADS-B
Fri 03:22:49 PM 40.2711 -75.4925 227° Southwest 417 480 38,000  Level FlightAware ADS-B
Fri 03:23:14 PM 40.2385 -75.5381 227° Southwest 414 476 38,000  Level FlightAware ADS-B
Fri 03:23:29 PM 40.2195 -75.5670 229° Southwest 414 476 38,000  Level FlightAware ADS-B
Fri 03:23:40 PM 40.2066 -75.5880 231° Southwest 414 476 38,000  Level FlightAware ADS-B
Fri 03:24:11 PM 40.1735 -75.6505 235° Southwest 411 473 38,000  Level FlightAware ADS-B
Fri 03:24:46 PM 40.1397 -75.7248 239° Southwest 411 473 38,000  Level FlightAware ADS-B
Fri 03:25:17 PM 40.1084 -75.7897 238° Southwest 413 475 38,000  Level FlightAware ADS-B
Fri 03:25:48 PM 40.0748 -75.8561 237° Southwest 414 476 38,000  Level FlightAware ADS-B
Fri 03:26:18 PM 40.0427 -75.9182 236° Southwest 415 478 38,000  Level FlightAware ADS-B
Fri 03:26:51 PM 40.0082 -75.9851 236° Southwest 417 480 38,000  Level FlightAware ADS-B
Fri 03:27:25 PM 39.9719 -76.0558 236° Southwest 415 478 38,000  Level FlightAware ADS-B
Fri 03:27:55 PM 39.9398 -76.1187 236° Southwest 416 479 38,000  Level FlightAware ADS-B
Fri 03:28:26 PM 39.9065 -76.1838 236° Southwest 418 481 38,000  Level FlightAware ADS-B
Fri 03:28:58 PM 39.8723 -76.2506 236° Southwest 417 480 38,000  Level FlightAware ADS-B
Fri 03:29:30 PM 39.8379 -76.3178 236° Southwest 416 479 38,000  Level FlightAware ADS-B
Fri 03:30:01 PM 39.8051 -76.3816 236° Southwest 415 478 38,000  Level FlightAware ADS-B
Fri 03:30:42 PM 39.7622 -76.4650 236° Southwest 414 476 38,000  Level FlightAware ADS-B
Fri 03:31:14 PM 39.7279 -76.5314 236° Southwest 416 479 38,000  Level FlightAware ADS-B
Fri 03:31:49 PM 39.6904 -76.6038 236° Southwest 416 479 38,000  Level FlightAware ADS-B
Fri 03:32:20 PM 39.6565 -76.6691 236° Southwest 415 478 38,000  Level FlightAware ADS-B
Fri 03:32:53 PM 39.6215 -76.7364 236° Southwest 414 476 38,000  Level FlightAware ADS-B
Fri 03:33:23 PM 39.5892 -76.7985 236° Southwest 415 478 38,000  Level FlightAware ADS-B
Fri 03:33:53 PM 39.5568 -76.8605 236° Southwest 415 478 38,000  Level FlightAware ADS-B
Fri 03:34:24 PM 39.5232 -76.9247 236° Southwest 417 480 38,000  Level FlightAware ADS-B
Fri 03:34:44 PM 39.5013 -76.9633 234° Southwest 418 481 38,000  Level FlightAware ADS-B
Fri 03:34:55 PM 39.4860 -76.9852 228° Southwest 420 483 38,000  Level FlightAware ADS-B
Fri 03:35:07 PM 39.4700 -77.0047 223° Southwest 422 486 38,000  Level FlightAware ADS-B
Fri 03:35:35 PM 39.4282 -77.0502 220° Southwest 423 487 38,000  Level FlightAware ADS-B
Fri 03:36:05 PM 39.3823 -77.0978 219° Southwest 423 487 38,000  Level FlightAware ADS-B
Fri 03:36:35 PM 39.3356 -77.1462 219° Southwest 424 488 38,000  Level FlightAware ADS-B
Fri 03:37:06 PM 39.2883 -77.1956 219° Southwest 425 489 38,000  Level FlightAware ADS-B
Fri 03:37:37 PM 39.2418 -77.2443 219° Southwest 425 489 38,000  Level FlightAware ADS-B
Fri 03:38:08 PM 39.1953 -77.2930 219° Southwest 424 488 38,000  Level FlightAware ADS-B
Fri 03:38:43 PM 39.1415 -77.3493 219° Southwest 422 486 38,000  Level FlightAware ADS-B
Fri 03:39:14 PM 39.0954 -77.3974 219° Southwest 422 486 38,000  Level FlightAware ADS-B
Fri 03:39:44 PM 39.0499 -77.4446 219° Southwest 422 486 38,000  Level FlightAware ADS-B
Fri 03:40:14 PM 39.0040 -77.4922 219° Southwest 422 486 38,000  Level FlightAware ADS-B
Fri 03:40:53 PM 38.9448 -77.5534 219° Southwest 422 486 38,000  Level FlightAware ADS-B
Fri 03:41:23 PM 38.8981 -77.6017 219° Southwest 423 487 38,000  Level FlightAware ADS-B
Fri 03:41:55 PM 38.8503 -77.6509 219° Southwest 424 488 38,000  Level FlightAware ADS-B
Fri 03:42:28 PM 38.7998 -77.7029 219° Southwest 424 488 38,000  Level FlightAware ADS-B
Fri 03:42:58 PM 38.7528 -77.7512 219° Southwest 426 490 38,000  Level FlightAware ADS-B
Fri 03:43:31 PM 38.7026 -77.8026 219° Southwest 425 489 38,000  Level FlightAware ADS-B
Fri 03:44:31 PM 38.6250 -77.8930 222° Southwest 418 481 38,000  Level FlightAware ADS-B
Fri 03:45:16 PM 38.5710 -77.9840 233° Southwest 417 480 38,000  Level FlightAware ADS-B
Fri 03:45:56 PM 38.5300 -78.0550 234° Southwest 416 479 38,000  Level FlightAware ADS-B
Fri 03:46:41 PM 38.4770 -78.1450 233° Southwest 414 476 38,000  Level FlightAware ADS-B
Fri 03:47:21 PM 38.4370 -78.2130 233° Southwest 414 476 38,000  Level FlightAware ADS-B
Fri 03:48:01 PM 38.3810 -78.3080 233° Southwest 415 478 38,000  Level FlightAware ADS-B
Fri 03:48:51 PM 38.3320 -78.3900 233° Southwest 413 475 38,000  Level FlightAware ADS-B
Fri 03:49:56 PM 38.2560 -78.5180 233° Southwest 414 476 38,000  Level FlightAware ADS-B
Fri 03:51:26 PM 38.1480 -78.6970 233° Southwest 407 468 38,000  Level FlightAware ADS-B
Fri 03:52:01 PM 38.1120 -78.7590 234° Southwest 407 468 38,000  Level FlightAware ADS-B
Fri 03:52:56 PM 38.0450 -78.8690 232° Southwest 410 472 38,000  Level FlightAware ADS-B
Fri 03:53:46 PM 37.9970 -78.9510 233° Southwest 410 472 38,000  Level FlightAware ADS-B
Fri 03:54:21 PM 37.9430 -79.0370 231° Southwest 38,000  Level FlightAware ADS-B
Fri 03:55:21 PM 37.8720 -79.1470 231° Southwest 410 472 38,000  Level FlightAware ADS-B
Fri 03:55:56 PM 37.8290 -79.2070 228° Southwest 410 472 38,000  Level FlightAware ADS-B
Fri 03:56:36 PM 37.7750 -79.2820 228° Southwest 411 473 38,000  Level FlightAware ADS-B
Fri 03:57:31 PM 37.7120 -79.3670 227° Southwest 411 473 38,000  Level FlightAware ADS-B
Fri 03:58:11 PM 37.6680 -79.4270 227° Southwest 411 473 38,000  Level FlightAware ADS-B
Fri 03:58:51 PM 37.6240 -79.4860 227° Southwest 411 473 38,000  Level FlightAware ADS-B
Fri 03:59:31 PM 37.5800 -79.5460 227° Southwest 411 473 38,000  Level FlightAware ADS-B
Fri 04:00:11 PM 37.5360 -79.6060 227° Southwest 411 473 38,000  Level FlightAware ADS-B
Fri 04:00:51 PM 37.4920 -79.6650 227° Southwest 411 473 38,000  Level FlightAware ADS-B
Fri 04:01:41 PM 37.4360 -79.7400 227° Southwest 411 473 38,000  Level FlightAware ADS-B
Fri 04:02:21 PM 37.3920 -79.7990 227° Southwest 411 473 38,000  Level FlightAware ADS-B
Fri 04:03:01 PM 37.3480 -79.8590 227° Southwest 411 473 38,000  Level FlightAware ADS-B
Fri 04:03:41 PM 37.3040 -79.9180 227° Southwest 411 473 38,000  Level FlightAware ADS-B
Fri 04:04:31 PM 37.2490 -79.9930 227° Southwest 411 473 38,000  Level FlightAware ADS-B
Fri 04:05:11 PM 37.2050 -80.0520 227° Southwest 411 473 38,000  Level FlightAware ADS-B
Fri 04:05:51 PM 37.1610 -80.1110 227° Southwest 411 473 38,000  Level FlightAware ADS-B
Fri 04:06:31 PM 37.1170 -80.1710 227° Southwest 411 473 38,000  Level FlightAware ADS-B
Fri 04:07:38 PM 36.9292 -80.4322 227° Southwest 401 461 38,000  Level Atlanta Center
Fri 04:08:38 PM 36.8508 -80.5342 226° Southwest 401 461 38,000  Level Atlanta Center
Fri 04:14:31 PM 36.3838 -81.1474 226° Southwest 406 467 38,000  Level FlightAware ADS-B
Fri 04:15:01 PM 36.3426 -81.1974 224° Southwest 407 468 38,000  Level FlightAware ADS-B
Fri 04:15:36 PM 36.2965 -81.2535 224° Southwest 407 468 38,000  Level FlightAware ADS-B
Fri 04:18:49 PM 36.0395 -81.5662 225° Southwest 402 463 38,000  Level FlightAware ADS-B
Fri 04:19:45 PM 35.9651 -81.6557 224° Southwest 405 466 38,000  Level FlightAware ADS-B
Fri 04:20:15 PM 35.9245 -81.7047 224° Southwest 403 464 38,000  Level FlightAware ADS-B
Fri 04:20:46 PM 35.8834 -81.7543 224° Southwest 401 461 38,000  Level FlightAware ADS-B
Fri 04:21:19 PM 35.8402 -81.8059 224° Southwest 399 459 38,000  Level FlightAware ADS-B
Fri 04:21:49 PM 35.8002 -81.8539 224° Southwest 400 460 38,000  Level FlightAware ADS-B
Fri 04:22:20 PM 35.7593 -81.9027 224° Southwest 398 458 38,000  Level FlightAware ADS-B
Fri 04:22:52 PM 35.7166 -81.9538 224° Southwest 399 459 38,000  Level FlightAware ADS-B
Fri 04:23:22 PM 35.6768 -82.0016 224° Southwest 400 460 38,000  Level FlightAware ADS-B
Fri 04:23:53 PM 35.6369 -82.0490 224° Southwest 396 456 38,000  Level FlightAware ADS-B
Fri 04:24:23 PM 35.5968 -82.0964 224° Southwest 397 457 38,000  Level FlightAware ADS-B
Fri 04:24:53 PM 35.5569 -82.1439 224° Southwest 397 457 38,000  Level FlightAware ADS-B
Fri 04:25:23 PM 35.5175 -82.1907 224° Southwest 395 455 38,000  Level FlightAware ADS-B
Fri 04:25:55 PM 35.4758 -82.2401 224° Southwest 395 455 38,000  Level FlightAware ADS-B
Fri 04:26:26 PM 35.4350 -82.2883 224° Southwest 397 457 38,000  Level FlightAware ADS-B
Fri 04:26:57 PM 35.3947 -82.3358 224° Southwest 397 457 38,000 -194 Level FlightAware ADS-B
Fri 04:27:28 PM 35.3538 -82.3843 224° Southwest 392 451 37,800 -831 Descending FlightAware ADS-B
Fri 04:28:02 PM 35.3098 -82.4360 224° Southwest 377 434 37,100 -1,588 Descending FlightAware ADS-B
Fri 04:28:36 PM 35.2682 -82.4849 224° Southwest 371 427 36,000 -1,938 Descending FlightAware ADS-B
Fri 04:29:07 PM 35.2300 -82.5294 224° Southwest 364 419 35,000 -1,594 Descending FlightAware ADS-B
Fri 04:29:40 PM 35.1903 -82.5763 224° Southwest 353 406 34,300 -938 Descending FlightAware ADS-B
Fri 04:30:11 PM 35.1541 -82.6186 224° Southwest 351 404 34,000 -857 Descending FlightAware ADS-B
Fri 04:30:43 PM 35.1166 -82.6624 224° Southwest 356 410 33,400 -1,905 Descending FlightAware ADS-B
Fri 04:31:14 PM 35.0787 -82.7069 224° Southwest 395 455 32,000 -2,361 Descending FlightAware ADS-B
Fri 04:31:44 PM 35.0381 -82.7540 224° Southwest 406 467 31,000 -1,869 Descending FlightAware ADS-B
Fri 04:32:15 PM 34.9955 -82.8033 223° Southwest 405 466 30,100 -1,645 Descending FlightAware ADS-B
Fri 04:32:46 PM 34.9538 -82.8518 224° Southwest 402 463 29,300 -1,672 Descending FlightAware ADS-B
Fri 04:33:16 PM 34.9127 -82.8997 224° Southwest 406 467 28,400 -686 Descending FlightAware ADS-B
Fri 04:33:56 PM 34.8720 -82.9480 224° Southwest 405 466 28,500 -1,592 Climbing FlightAware ADS-B
Fri 04:34:05 PM 34.8469 -82.9758 222° Southwest 402 463 27,100 -3,450 Descending FlightAware ADS-B
Fri 04:34:36 PM 34.8056 -83.0235 223° Southwest 392 451 26,200 -1,677 Descending FlightAware ADS-B
Fri 04:35:38 PM 34.7238 -83.1180 224° Southwest 392 451 24,500 -1,677 Descending FlightAware ADS-B
Fri 04:36:09 PM 34.6828 -83.1651 223° Southwest 388 447 23,600 -1,714 Descending FlightAware ADS-B
Fri 04:36:41 PM 34.6425 -83.2114 223° Southwest 383 441 22,700 -1,548 Descending FlightAware ADS-B
Fri 04:37:11 PM 34.6030 -83.2569 223° Southwest 383 441 22,000 -1,377 Descending FlightAware ADS-B
Fri 04:37:42 PM 34.5638 -83.3018 223° Southwest 381 438 21,300 -1,560 Descending FlightAware ADS-B
Fri 04:38:51 PM 34.4800 -83.3980 223° Southwest 367 422 19,400 -1,596 Descending FlightAware ADS-B
Fri 04:39:31 PM 34.4310 -83.4540 223° Southwest 365 420 18,400 -1,624 Descending FlightAware ADS-B
Fri 04:40:16 PM 34.3750 -83.5180 223° Southwest 360 414 17,100 -1,765 Descending FlightAware ADS-B
Fri 04:40:56 PM 34.3280 -83.5710 223° Southwest 354 407 15,900 -1,950 Descending FlightAware ADS-B
Fri 04:41:36 PM 34.2810 -83.6240 223° Southwest 350 403 14,500 -2,047 Descending FlightAware ADS-B
Fri 04:42:21 PM 34.2310 -83.6810 223° Southwest 340 391 13,000 -1,694 Descending FlightAware ADS-B
Fri 04:43:01 PM 34.1870 -83.7310 223° Southwest 330 380 12,100 -675 Descending FlightAware ADS-B
Fri 04:43:41 PM 34.1440 -83.7790 223° Southwest 288 331 12,100  Level FlightAware ADS-B
Fri 04:44:41 PM 34.0880 -83.8420 223° Southwest 270 311 12,100 -480 Level FlightAware ADS-B
Fri 04:45:21 PM 34.0500 -83.8830 222° Southwest 277 319 11,300 -1,341 Descending FlightAware ADS-B
Fri 04:46:06 PM 34.0070 -83.9290 222° Southwest 281 323 10,200 -918 Descending FlightAware ADS-B
Fri 04:46:46 PM 33.9690 -83.9700 222° Southwest 277 319 10,000 -75 Descending FlightAware ADS-B
Fri 04:47:26 PM 33.9270 -84.0150 222° Southwest 275 316 10,100 -514 Climbing FlightAware ADS-B
Fri 04:47:56 PM 33.8950 -84.0400 213° Southwest 270 311 9,400 -1,309 Descending FlightAware ADS-B
Fri 04:48:21 PM 33.8680 -84.0600 212° Southwest 267 307 8,900 -1,020 Descending FlightAware ADS-B
Fri 04:49:36 PM 33.7980 -84.1180 215° Southwest 258 297 7,700 -1,224 Descending FlightAware ADS-B
Fri 04:52:26 PM 33.6590 -84.2600 220° Southwest 207 238 3,900 -1,336 Descending FlightAware ADS-B
Fri 04:53:16 PM 33.6460 -84.3100 253° West 179 206 2,800 -1,125 Descending FlightAware ADS-B
Fri 04:54:34 PM 33.6500 -84.3833 253° West 137 158 1,500 -1,000 Descending Atlanta TRACON
Fri 04:56:00 PM 33.6367 -84.4279 270° West  Level Estimated
Fri 05:03:00 PM 33.6367 -84.4279 64° Northeast  Level Estimated

Login

Don't have an account? Register now (free) for customized features, flight alerts, and more!